Time;durP1;ratioP1;P1;durP2;ratioP2;P2;SDS_P1;SDS_P2;PMS_P1;PMS_P2;Temp;Humidity;BMP_temperature;BMP_pressure;BME280_temperature;BME280_humidity;BME280_pressure;Samples;Min_cycle;Max_cycle;Signal;HPM_P1;HPM_P2
2021/06/04 00:01:04;;;;;;;3.65;2.60;;;19.10;99.90;;;;;;5111294;28;20670;-61
2021/06/04 00:03:32;;;;;;;5.38;2.70;;;19.00;99.90;;;;;;5111464;28;20217;-61
2021/06/04 00:05:58;;;;;;;3.58;2.60;;;18.80;99.90;;;;;;5111663;28;20234;-61
2021/06/04 00:08:25;;;;;;;4.70;2.70;;;18.80;99.90;;;;;;5111322;28;20208;-61
2021/06/04 00:10:54;;;;;;;5.80;2.38;;;18.70;99.90;;;;;;5111202;28;20214;-61
2021/06/04 00:13:25;;;;;;;3.65;2.38;;;18.70;99.90;;;;;;5111063;28;20215;-61
2021/06/04 00:15:54;;;;;;;2.72;2.53;;;18.60;99.90;;;;;;5111105;28;20275;-61
2021/06/04 00:18:22;;;;;;;4.03;2.60;;;18.50;99.90;;;;;;5110962;28;20219;-61
2021/06/04 00:20:48;;;;;;;3.83;2.63;;;18.50;99.90;;;;;;5111110;28;20200;-61
2021/06/04 00:23:14;;;;;;;2.55;2.35;;;18.50;99.90;;;;;;5110957;28;20722;-61
2021/06/04 00:25:40;;;;;;;3.10;2.38;;;18.50;99.90;;;;;;5111615;28;20226;-62
2021/06/04 00:28:07;;;;;;;5.05;2.78;;;18.60;99.90;;;;;;5114780;28;20211;-61
2021/06/04 00:30:33;;;;;;;2.65;2.45;;;18.70;99.90;;;;;;5114964;28;20200;-62
2021/06/04 00:32:59;;;;;;;3.15;2.30;;;18.60;99.90;;;;;;5114968;28;20203;-61
2021/06/04 00:35:27;;;;;;;4.10;2.50;;;18.60;99.90;;;;;;5114741;28;20227;-61
2021/06/04 00:37:53;;;;;;;2.35;2.15;;;18.50;99.90;;;;;;5114489;28;20230;-61
2021/06/04 00:40:27;;;;;;;3.25;2.53;;;18.50;99.90;;;;;;5114731;28;20288;-61
2021/06/04 00:42:54;;;;;;;3.22;2.50;;;18.50;99.90;;;;;;5114868;28;20209;-61
2021/06/04 00:45:24;;;;;;;2.95;2.65;;;18.50;99.90;;;;;;5114657;28;20224;-61
2021/06/04 00:47:50;;;;;;;3.55;2.40;;;18.40;99.90;;;;;;5114745;28;20728;-61
2021/06/04 00:50:22;;;;;;;2.75;2.45;;;18.40;99.90;;;;;;5114764;27;20211;-61
2021/06/04 00:52:50;;;;;;;3.75;2.63;;;18.40;99.90;;;;;;5114483;28;20208;-61
2021/06/04 00:55:19;;;;;;;2.58;2.38;;;18.30;99.90;;;;;;5114524;28;20284;-61
2021/06/04 00:57:46;;;;;;;3.22;2.45;;;18.30;99.90;;;;;;5114364;28;20223;-61
2021/06/04 01:00:22;;;;;;;3.33;2.50;;;18.30;99.90;;;;;;5114493;28;20240;-61
2021/06/04 01:02:48;;;;;;;3.67;2.27;;;18.20;99.90;;;;;;5114449;28;20207;-61
2021/06/04 01:05:15;;;;;;;3.30;2.57;;;18.10;99.90;;;;;;5114000;28;20223;-61
2021/06/04 01:07:53;;;;;;;2.38;2.13;;;18.10;99.90;;;;;;5114090;28;20210;-61
2021/06/04 01:10:31;;;;;;;2.55;2.25;;;18.00;99.90;;;;;;5114216;28;20237;-61
2021/06/04 01:13:05;;;;;;;3.30;2.57;;;17.90;99.90;;;;;;5114147;28;20245;-61
2021/06/04 01:15:48;;;;;;;3.03;2.50;;;17.90;99.90;;;;;;5113832;28;20276;-61
2021/06/04 01:18:24;;;;;;;3.77;2.50;;;17.80;99.90;;;;;;5113731;28;20718;-61
2021/06/04 01:20:55;;;;;;;2.70;2.50;;;17.80;99.90;;;;;;5114018;28;20207;-61
2021/06/04 01:23:46;;;;;;;3.22;2.53;;;17.70;99.90;;;;;;5113854;28;20210;-60
2021/06/04 01:26:17;;;;;;;4.40;4.00;;;17.70;99.90;;;;;;5113656;28;20280;-59
2021/06/04 01:28:48;;;;;;;5.20;4.60;;;17.60;99.90;;;;;;5113715;28;20260;-60
2021/06/04 01:31:19;;;;;;;3.50;2.93;;;17.60;99.90;;;;;;5113854;28;20207;-59
2021/06/04 01:33:48;;;;;;;3.73;2.80;;;17.50;99.90;;;;;;5113577;28;20204;-59
2021/06/04 01:36:17;;;;;;;3.00;2.70;;;17.40;99.90;;;;;;5113390;28;20493;-59
2021/06/04 01:38:45;;;;;;;3.97;2.70;;;17.40;99.90;;;;;;5112741;27;20218;-60
2021/06/04 01:41:14;;;;;;;2.90;2.60;;;17.40;99.90;;;;;;5113625;28;20249;-59
2021/06/04 01:43:44;;;;;;;4.30;3.00;;;17.40;99.90;;;;;;5113360;28;20200;-59
2021/06/04 01:46:14;;;;;;;3.83;3.17;;;17.40;99.90;;;;;;5113285;28;20219;-60
2021/06/04 01:48:43;;;;;;;2.73;2.37;;;17.50;99.90;;;;;;5113214;28;20210;-60
2021/06/04 01:51:16;;;;;;;4.70;2.65;;;17.50;99.90;;;;;;5113213;28;20233;-60
2021/06/04 01:53:48;;;;;;;2.70;2.50;;;17.50;99.90;;;;;;5113332;28;20212;-60
2021/06/04 01:56:20;;;;;;;3.40;2.90;;;17.50;99.90;;;;;;5113149;28;20223;-60
2021/06/04 01:58:50;;;;;;;4.13;2.30;;;17.50;99.90;;;;;;5112899;28;20544;-60
2021/06/04 02:01:21;;;;;;;5.47;2.50;;;17.40;99.90;;;;;;5112996;28;20219;-60
2021/06/04 02:03:48;;;;;;;3.47;2.70;;;17.40;99.90;;;;;;5112817;28;20218;-60
2021/06/04 02:06:15;;;;;;;2.70;2.50;;;17.40;99.90;;;;;;5113132;28;20227;-60
2021/06/04 02:08:45;;;;;;;5.80;2.80;;;17.40;99.90;;;;;;5112976;28;20203;-60
2021/06/04 02:11:12;;;;;;;4.67;2.90;;;17.40;99.90;;;;;;5112851;28;20219;-60
2021/06/04 02:13:43;;;;;;;4.47;3.30;;;17.40;99.90;;;;;;5112597;28;20671;-60
2021/06/04 02:16:23;;;;;;;2.93;2.60;;;17.40;99.90;;;;;;5113227;28;20223;-60
2021/06/04 02:18:59;;;;;;;3.23;2.53;;;17.40;99.90;;;;;;5113035;28;20257;-60
2021/06/04 02:21:31;;;;;;;3.30;2.60;;;17.40;99.90;;;;;;5112968;28;20204;-60
2021/06/04 02:24:06;;;;;;;7.07;3.10;;;17.40;99.90;;;;;;5112779;28;20257;-60
2021/06/04 02:26:37;;;;;;;3.37;2.67;;;17.40;99.90;;;;;;5112914;28;20670;-60
2021/06/04 02:29:10;;;;;;;4.07;2.47;;;17.40;99.90;;;;;;5112912;28;20207;-60
2021/06/04 02:31:42;;;;;;;5.43;2.50;;;17.40;99.90;;;;;;5112767;28;20207;-60
2021/06/04 02:34:13;;;;;;;4.40;2.90;;;17.40;99.90;;;;;;5112372;28;20203;-60
2021/06/04 02:36:43;;;;;;;4.30;2.83;;;17.40;99.90;;;;;;5112437;28;20220;-60
2021/06/04 02:39:13;;;;;;;3.87;2.70;;;17.30;99.90;;;;;;5112654;28;20206;-60
2021/06/04 02:41:43;;;;;;;3.00;2.70;;;17.30;99.90;;;;;;5112474;28;20225;-60
2021/06/04 02:44:14;;;;;;;4.60;2.87;;;17.20;99.90;;;;;;5111977;28;20208;-60
2021/06/04 02:46:44;;;;;;;4.37;2.67;;;17.20;99.90;;;;;;5112304;28;20200;-60
2021/06/04 02:49:13;;;;;;;3.37;3.07;;;17.10;99.90;;;;;;5111250;28;20623;-60
2021/06/04 02:51:52;;;;;;;5.70;2.67;;;17.10;99.90;;;;;;5111891;28;20203;-60
2021/06/04 02:54:21;;;;;;;4.67;2.90;;;17.10;99.90;;;;;;5112051;28;20219;-60
2021/06/04 02:56:50;;;;;;;2.90;2.67;;;17.10;99.90;;;;;;5112065;28;20223;-60
2021/06/04 02:59:20;;;;;;;4.00;3.07;;;17.10;99.90;;;;;;5112026;28;20210;-60
2021/06/04 03:01:49;;;;;;;5.70;2.90;;;17.10;99.90;;;;;;5112274;28;20264;-60
2021/06/04 03:04:17;;;;;;;4.73;2.60;;;17.10;99.90;;;;;;5111956;28;20840;-60
2021/06/04 03:06:49;;;;;;;2.90;2.70;;;17.00;99.90;;;;;;5112316;28;20207;-60
2021/06/04 03:09:20;;;;;;;2.57;2.37;;;16.90;99.90;;;;;;5111830;28;20203;-60
2021/06/04 03:11:47;;;;;;;3.27;2.97;;;16.90;99.90;;;;;;5112102;27;20239;-60
2021/06/04 03:14:16;;;;;;;3.57;2.90;;;16.80;99.90;;;;;;5111716;28;20231;-60
2021/06/04 03:16:45;;;;;;;3.13;2.83;;;16.90;99.90;;;;;;5111765;28;20235;-60
2021/06/04 03:19:13;;;;;;;3.60;3.23;;;16.80;99.90;;;;;;5112015;28;20214;-60
2021/06/04 03:21:42;;;;;;;3.60;3.03;;;16.80;99.90;;;;;;5111943;28;20199;-60
2021/06/04 03:24:14;;;;;;;3.17;2.60;;;16.80;99.90;;;;;;5112411;28;20215;-60
2021/06/04 03:26:41;;;;;;;4.73;3.30;;;16.90;99.90;;;;;;5111762;28;20830;-60
2021/06/04 03:29:11;;;;;;;3.20;2.90;;;16.90;99.90;;;;;;5111775;28;20207;-60
2021/06/04 03:31:41;;;;;;;5.43;3.13;;;16.80;99.90;;;;;;5112003;28;20211;-60
2021/06/04 03:34:09;;;;;;;3.30;3.00;;;16.90;99.90;;;;;;5111396;28;20207;-60
2021/06/04 03:36:40;;;;;;;6.53;3.30;;;16.90;99.90;;;;;;5111909;28;20207;-60
2021/06/04 03:39:09;;;;;;;4.43;3.60;;;16.90;99.90;;;;;;5111662;28;20581;-60
2021/06/04 03:41:38;;;;;;;4.03;3.40;;;16.90;99.90;;;;;;5111700;28;20203;-60
2021/06/04 03:44:07;;;;;;;5.73;3.80;;;17.00;99.90;;;;;;5111844;28;20264;-60
2021/06/04 03:46:33;;;;;;;8.03;5.33;;;17.10;99.90;;;;;;5111910;28;20215;-60
2021/06/04 03:49:00;;;;;;;4.33;3.50;;;17.20;99.90;;;;;;5112058;28;20207;-61
2021/06/04 03:51:33;;;;;;;5.70;4.90;;;17.20;99.90;;;;;;5112340;28;20203;-60
2021/06/04 03:54:00;;;;;;;6.43;4.93;;;17.30;99.90;;;;;;5111603;28;20210;-61
2021/06/04 03:56:28;;;;;;;7.53;3.97;;;17.40;99.90;;;;;;5111504;28;20207;-62
2021/06/04 03:58:55;;;;;;;4.33;3.33;;;17.50;99.90;;;;;;5111609;28;20204;-61
2021/06/04 04:01:24;;;;;;;4.17;3.27;;;17.60;99.90;;;;;;5113600;28;20199;-61
2021/06/04 04:03:51;;;;;;;4.70;3.20;;;17.60;99.90;;;;;;5115503;28;20244;-60
2021/06/04 04:06:17;;;;;;;3.57;3.27;;;17.70;99.90;;;;;;5115301;28;20703;-60
2021/06/04 04:08:45;;;;;;;4.73;3.50;;;17.60;99.90;;;;;;5115021;28;20222;-60
2021/06/04 04:11:11;;;;;;;6.43;4.40;;;17.60;99.90;;;;;;5115023;28;20215;-60
2021/06/04 04:13:37;;;;;;;3.65;3.25;;;17.50;99.90;;;;;;5115166;28;20206;-60
2021/06/04 04:16:04;;;;;;;3.83;3.00;;;17.60;99.90;;;;;;5115215;28;20223;-60
2021/06/04 04:18:30;;;;;;;4.20;3.20;;;17.60;99.90;;;;;;5115050;28;20227;-60
2021/06/04 04:21:00;;;;;;;4.10;3.15;;;17.60;99.90;;;;;;5115127;28;20215;-60
2021/06/04 04:23:29;;;;;;;4.73;3.27;;;17.60;99.90;;;;;;5114774;28;20199;-60
2021/06/04 04:25:57;;;;;;;4.67;3.30;;;17.70;99.90;;;;;;5114873;28;20702;-61
2021/06/04 04:28:33;;;;;;;4.13;3.47;;;17.80;99.90;;;;;;5114656;28;20196;-60
2021/06/04 04:31:00;;;;;;;6.72;3.50;;;18.00;99.90;;;;;;5114669;28;20685;-62
2021/06/04 04:33:27;;;;;;;4.50;3.55;;;18.20;99.90;;;;;;5115162;28;20206;-60
2021/06/04 04:35:54;;;;;;;3.85;3.35;;;18.50;99.90;;;;;;5114669;28;20603;-60
2021/06/04 04:38:21;;;;;;;4.13;3.33;;;18.70;99.90;;;;;;5114754;28;20223;-60
2021/06/04 04:40:49;;;;;;;6.53;4.22;;;19.00;99.90;;;;;;5114911;28;20235;-60
2021/06/04 04:43:18;;;;;;;4.10;3.58;;;19.40;99.90;;;;;;5114774;28;20208;-60
2021/06/04 04:45:44;;;;;;;5.43;3.47;;;19.70;99.90;;;;;;5114448;28;20224;-60
2021/06/04 04:48:11;;;;;;;4.93;3.28;;;19.80;99.90;;;;;;5114307;28;20565;-61
2021/06/04 04:50:38;;;;;;;5.00;3.55;;;20.20;99.90;;;;;;5114907;28;20276;-60
2021/06/04 04:53:05;;;;;;;4.28;3.60;;;20.50;99.90;;;;;;5114568;28;20207;-60
2021/06/04 04:55:38;;;;;;;4.22;3.50;;;20.70;99.90;;;;;;5114282;28;20292;-60
2021/06/04 04:58:05;;;;;;;4.07;2.83;;;21.10;99.90;;;;;;5114528;28;20230;-61
2021/06/04 05:00:34;;;;;;;4.00;3.10;;;21.20;99.90;;;;;;5114743;28;20211;-61
2021/06/04 05:03:00;;;;;;;3.75;2.65;;;21.40;99.90;;;;;;5114596;28;20204;-60
2021/06/04 05:05:29;;;;;;;4.75;3.10;;;21.50;99.90;;;;;;5114398;28;20791;-61
2021/06/04 05:07:55;;;;;;;5.57;4.45;;;21.60;99.90;;;;;;5114296;27;20204;-61
2021/06/04 05:10:21;;;;;;;5.60;4.20;;;21.90;99.90;;;;;;5114208;28;20247;-60
2021/06/04 05:12:48;;;;;;;5.95;2.53;;;22.60;99.90;;;;;;5113231;28;20621;-61
2021/06/04 05:15:18;;;;;;;4.25;3.20;;;23.40;99.90;;;;;;5114092;28;20280;-62
2021/06/04 05:17:46;;;;;;;5.47;2.80;;;24.70;99.90;;;;;;5113595;27;20223;-61
2021/06/04 05:20:14;;;;;;;3.35;2.72;;;26.30;99.90;;;;;;5113863;28;20199;-61
2021/06/04 05:22:41;;;;;;;4.57;2.80;;;28.20;96.10;;;;;;5114189;28;20199;-61
2021/06/04 05:25:10;;;;;;;5.45;3.30;;;29.90;91.70;;;;;;5113807;27;20254;-61
2021/06/04 05:27:37;;;;;;;6.28;2.78;;;31.20;85.50;;;;;;5113914;28;20200;-61
2021/06/04 05:30:06;;;;;;;4.15;2.55;;;32.40;79.40;;;;;;5113690;28;20211;-61
2021/06/04 05:32:32;;;;;;;5.10;2.80;;;32.70;74.30;;;;;;5114116;28;20207;-62
2021/06/04 05:35:00;;;;;;;2.80;2.33;;;32.30;75.30;;;;;;5113522;28;20227;-61
2021/06/04 05:37:26;;;;;;;3.13;2.60;;;32.10;73.80;;;;;;5113547;28;20215;-62
2021/06/04 05:39:52;;;;;;;4.50;3.00;;;31.50;74.30;;;;;;5113385;28;20272;-62
2021/06/04 05:42:19;;;;;;;6.35;3.00;;;30.80;77.20;;;;;;5113545;28;20207;-62
2021/06/04 05:44:47;;;;;;;4.78;2.80;;;30.90;76.60;;;;;;5112997;28;20600;-62
2021/06/04 05:47:14;;;;;;;4.00;2.90;;;32.00;73.30;;;;;;5113681;27;20362;-61
2021/06/04 05:49:41;;;;;;;4.28;2.45;;;32.80;69.70;;;;;;5113162;28;20231;-61
2021/06/04 05:52:10;;;;;;;5.45;2.75;;;32.20;70.00;;;;;;5113940;28;20211;-61
2021/06/04 05:54:38;;;;;;;3.55;2.97;;;30.30;75.40;;;;;;5113236;28;20220;-61
2021/06/04 05:57:05;;;;;;;4.45;3.00;;;28.50;82.20;;;;;;5113498;28;20223;-61
2021/06/04 05:59:32;;;;;;;4.15;2.80;;;27.30;88.00;;;;;;5113316;28;20227;-61
2021/06/04 06:01:58;;;;;;;2.85;2.50;;;26.40;91.60;;;;;;5113258;27;20215;-61
2021/06/04 06:04:25;;;;;;;5.75;3.05;;;26.20;92.50;;;;;;5113132;28;20231;-62
2021/06/04 06:06:52;;;;;;;3.95;2.83;;;26.30;93.20;;;;;;5112795;28;20260;-61
2021/06/04 06:09:21;;;;;;;5.63;3.20;;;26.30;93.60;;;;;;5112873;28;20208;-64
2021/06/04 06:11:47;;;;;;;3.90;2.90;;;26.70;93.20;;;;;;5113046;28;20580;-62
2021/06/04 06:14:15;;;;;;;3.35;2.90;;;27.00;92.70;;;;;;5112850;28;20223;-62
2021/06/04 06:16:42;;;;;;;5.22;3.30;;;27.00;93.10;;;;;;5113010;28;20248;-61
2021/06/04 06:19:15;;;;;;;4.85;2.92;;;27.10;92.90;;;;;;5112891;28;20215;-62
2021/06/04 06:21:44;;;;;;;3.80;2.80;;;27.20;92.80;;;;;;5113112;28;20208;-65
2021/06/04 06:24:11;;;;;;;4.35;3.45;;;26.90;93.30;;;;;;5112838;28;20203;-61
2021/06/04 06:26:39;;;;;;;6.78;3.40;;;26.30;94.50;;;;;;5113035;28;20232;-61
2021/06/04 06:29:08;;;;;;;3.55;3.08;;;25.90;95.50;;;;;;5113098;28;20276;-61
2021/06/04 06:31:39;;;;;;;4.60;3.40;;;25.60;96.60;;;;;;5113133;28;20231;-61
2021/06/04 06:34:08;;;;;;;4.82;3.70;;;25.20;98.10;;;;;;5113501;28;20239;-61
2021/06/04 06:36:37;;;;;;;5.35;3.50;;;24.70;99.90;;;;;;5112672;27;20210;-62
2021/06/04 06:39:09;;;;;;;4.82;3.30;;;24.50;99.90;;;;;;5112602;28;20235;-62
2021/06/04 06:41:35;;;;;;;3.97;3.33;;;24.40;99.90;;;;;;5112471;28;20583;-61
2021/06/04 06:44:03;;;;;;;5.13;3.90;;;24.60;99.90;;;;;;5112471;28;20203;-62
2021/06/04 06:46:29;;;;;;;6.45;3.33;;;24.80;99.90;;;;;;5112568;28;20671;-61
2021/06/04 06:48:55;;;;;;;6.80;3.42;;;24.90;99.90;;;;;;5112270;28;20196;-61
2021/06/04 06:51:22;;;;;;;4.15;3.20;;;25.00;99.90;;;;;;5112167;28;20691;-61
2021/06/04 06:53:49;;;;;;;5.80;3.33;;;25.30;99.90;;;;;;5112270;28;20222;-61
2021/06/04 06:56:17;;;;;;;7.85;3.22;;;25.50;99.90;;;;;;5112416;28;20228;-61
2021/06/04 06:58:45;;;;;;;4.63;3.65;;;25.60;99.60;;;;;;5112374;28;20589;-62
2021/06/04 07:01:13;;;;;;;4.82;2.90;;;25.50;99.70;;;;;;5112362;28;20204;-62
2021/06/04 07:03:42;;;;;;;4.80;3.13;;;25.60;98.40;;;;;;5112034;28;20215;-62
2021/06/04 07:06:11;;;;;;;4.70;3.15;;;25.80;97.90;;;;;;5112091;28;20227;-62
2021/06/04 07:08:37;;;;;;;7.55;3.20;;;26.30;96.60;;;;;;5112248;28;20200;-62
2021/06/04 07:11:03;;;;;;;4.13;2.75;;;26.90;95.30;;;;;;5112128;28;20211;-59
2021/06/04 07:13:30;;;;;;;4.82;3.15;;;27.80;93.40;;;;;;5112075;28;20626;-60
2021/06/04 07:16:00;;;;;;;3.85;2.80;;;28.40;91.80;;;;;;5112277;28;20694;-61
2021/06/04 07:18:29;;;;;;;3.50;2.65;;;28.90;90.20;;;;;;5111687;27;20276;-60
2021/06/04 07:20:56;;;;;;;4.00;2.72;;;29.70;87.50;;;;;;5111888;28;20214;-61
2021/06/04 07:23:23;;;;;;;4.63;3.50;;;30.60;84.60;;;;;;5112134;28;20200;-61
2021/06/04 07:25:50;;;;;;;4.65;2.67;;;32.10;78.80;;;;;;5111739;28;20223;-62
2021/06/04 07:28:19;;;;;;;5.93;2.80;;;33.80;72.50;;;;;;5111991;28;20200;-61
2021/06/04 07:30:47;;;;;;;5.10;2.35;;;35.60;66.10;;;;;;5112040;28;20204;-62
2021/06/04 07:33:16;;;;;;;2.80;2.47;;;36.10;61.10;;;;;;5112047;28;20211;-63
2021/06/04 07:35:43;;;;;;;6.28;2.60;;;36.20;59.80;;;;;;5111440;28;20231;-62
2021/06/04 07:38:10;;;;;;;3.92;2.70;;;34.90;61.10;;;;;;5112386;28;20231;-62
2021/06/04 07:40:38;;;;;;;4.15;2.70;;;33.60;64.80;;;;;;5112253;28;20207;-62
2021/06/04 07:43:09;;;;;;;3.10;2.78;;;32.30;68.30;;;;;;5111718;28;20575;-62
2021/06/04 07:45:37;;;;;;;4.85;3.05;;;31.60;70.80;;;;;;5111580;28;20227;-63
2021/06/04 07:48:05;;;;;;;7.45;3.00;;;31.40;71.60;;;;;;5111799;28;20290;-63
2021/06/04 07:50:32;;;;;;;3.20;2.88;;;31.20;72.60;;;;;;5111622;28;20207;-62
2021/06/04 07:53:00;;;;;;;4.28;2.80;;;31.30;72.00;;;;;;5111642;28;20204;-62
2021/06/04 07:55:27;;;;;;;3.75;3.30;;;31.40;72.50;;;;;;5110923;28;20227;-62
2021/06/04 07:57:53;;;;;;;3.65;2.75;;;31.20;73.30;;;;;;5110976;28;20215;-62
2021/06/04 08:00:23;;;;;;;9.93;3.22;;;31.30;73.50;;;;;;5111328;28;20545;-63
2021/06/04 08:02:50;;;;;;;3.67;2.95;;;31.60;72.20;;;;;;5111509;28;20208;-62
2021/06/04 08:05:17;;;;;;;3.45;2.58;;;32.00;71.00;;;;;;5111057;28;20227;-60
2021/06/04 08:07:43;;;;;;;3.78;3.40;;;32.60;69.70;;;;;;5111027;28;20611;-61
2021/06/04 08:10:13;;;;;;;4.22;3.03;;;33.60;67.50;;;;;;5111255;28;20219;-61
2021/06/04 08:12:40;;;;;;;4.22;2.60;;;34.70;64.00;;;;;;5111049;28;20292;-61
2021/06/04 08:15:11;;;;;;;3.55;2.63;;;35.80;60.40;;;;;;5110976;28;20625;-60
2021/06/04 08:17:38;;;;;;;4.45;2.80;;;36.80;58.10;;;;;;5110778;28;20230;-61
2021/06/04 08:20:07;;;;;;;4.43;2.63;;;38.00;55.00;;;;;;5110855;28;20208;-61
2021/06/04 08:22:33;;;;;;;4.28;2.50;;;38.80;53.60;;;;;;5111053;28;20203;-61
2021/06/04 08:25:00;;;;;;;4.28;2.25;;;38.70;52.10;;;;;;5110728;28;20219;-61
2021/06/04 08:27:27;;;;;;;4.93;2.55;;;38.10;52.90;;;;;;5111197;28;20208;-60
2021/06/04 08:29:54;;;;;;;4.50;2.90;;;37.50;53.30;;;;;;5111454;28;20214;-62
2021/06/04 08:32:21;;;;;;;5.15;2.13;;;36.50;55.60;;;;;;5111456;28;20310;-60
2021/06/04 08:34:47;;;;;;;2.75;2.22;;;36.50;55.70;;;;;;5111177;28;20255;-61
2021/06/04 08:37:13;;;;;;;5.68;2.88;;;36.80;54.90;;;;;;5111276;28;20204;-60
2021/06/04 08:39:43;;;;;;;9.15;3.40;;;36.90;55.10;;;;;;5111402;28;20573;-60
2021/06/04 08:42:25;;;;;;;3.70;2.90;;;37.00;54.40;;;;;;5112560;28;20239;-60
2021/06/04 08:45:10;;;;;;;4.60;3.28;;;36.80;55.00;;;;;;5113194;28;20227;-60
2021/06/04 08:47:40;;;;;;;6.13;3.05;;;36.50;56.20;;;;;;5114038;28;20226;-61
2021/06/04 08:50:19;;;;;;;5.63;3.28;;;36.00;56.70;;;;;;5116498;28;20551;-60
2021/06/04 08:52:52;;;;;;;4.32;3.40;;;35.50;57.20;;;;;;5115748;27;20214;-61
2021/06/04 08:55:32;;;;;;;3.50;2.85;;;35.00;58.40;;;;;;5114967;28;20223;-63
2021/06/04 08:58:07;;;;;;;4.68;3.00;;;34.30;59.00;;;;;;5114756;28;20223;-62
2021/06/04 09:00:37;;;;;;;5.25;3.05;;;33.80;60.40;;;;;;5114408;28;20210;-62
2021/06/04 09:03:07;;;;;;;5.07;2.80;;;33.20;62.30;;;;;;5114896;27;20207;-63
2021/06/04 09:05:40;;;;;;;5.15;2.97;;;32.60;63.40;;;;;;5114261;28;20606;-62
2021/06/04 09:08:11;;;;;;;5.15;2.47;;;32.30;64.80;;;;;;5114606;28;20203;-61
2021/06/04 09:10:48;;;;;;;5.10;2.40;;;31.90;62.60;;;;;;5114184;28;20208;-63
2021/06/04 09:13:17;;;;;;;4.30;2.10;;;31.40;64.90;;;;;;5114108;28;20208;-61
2021/06/04 09:15:47;;;;;;;5.15;2.63;;;30.90;65.80;;;;;;5114132;28;20220;-62
2021/06/04 09:18:16;;;;;;;7.65;2.00;;;30.40;66.20;;;;;;5114378;28;20256;-64
2021/06/04 09:20:51;;;;;;;3.28;2.00;;;30.30;65.70;;;;;;5112420;28;20667;-65
2021/06/04 09:23:21;;;;;;;2.97;1.80;;;30.00;65.70;;;;;;5123820;22;20205;-65
2021/06/04 09:25:47;;;;;;;3.38;2.10;;;30.00;67.60;;;;;;5073562;28;20212;-64
2021/06/04 09:28:27;;;;;;;4.70;1.98;;;30.10;67.40;;;;;;5073323;28;20201;-62
2021/06/04 09:30:56;;;;;;;8.55;2.20;;;30.40;66.60;;;;;;5072900;28;20220;-64
2021/06/04 09:33:28;;;;;;;7.47;2.10;;;30.70;65.00;;;;;;5076523;28;20710;-64
2021/06/04 09:36:02;;;;;;;4.55;1.70;;;30.60;64.90;;;;;;5092988;28;20204;-62
2021/06/04 09:38:33;;;;;;;3.83;1.90;;;30.40;64.80;;;;;;5093130;28;20228;-65
2021/06/04 09:41:33;;;;;;;3.88;2.33;;;30.30;65.90;;;;;;5093266;28;20238;-63
2021/06/04 09:44:21;;;;;;;3.53;2.13;;;30.20;68.40;;;;;;5092893;28;20294;-62
2021/06/04 09:46:57;;;;;;;4.68;2.17;;;30.10;68.70;;;;;;5092901;28;20208;-59
2021/06/04 09:49:36;;;;;;;2.50;2.30;;;30.00;70.10;;;;;;5092810;28;20663;-65
2021/06/04 09:52:29;;;;;;;3.50;2.08;;;29.50;72.10;;;;;;5092900;28;20204;-61
2021/06/04 09:55:11;;;;;;;3.25;2.00;;;29.30;72.20;;;;;;5092729;28;20730;-62
2021/06/04 09:57:54;;;;;;;3.08;2.10;;;29.10;71.80;;;;;;5093082;28;20314;-62
2021/06/04 10:00:26;;;;;;;3.88;2.00;;;29.10;71.80;;;;;;5092917;28;20201;-63
2021/06/04 10:03:05;;;;;;;4.40;2.58;;;29.10;71.00;;;;;;5092524;28;20589;-62
2021/06/04 10:05:33;;;;;;;3.85;2.17;;;29.20;70.80;;;;;;5092842;28;20591;-64
2021/06/04 10:08:00;;;;;;;2.67;1.70;;;29.30;69.50;;;;;;5092730;28;20203;-63
2021/06/04 10:10:30;;;;;;;3.85;2.00;;;29.20;70.00;;;;;;5092199;28;20675;-63
2021/06/04 10:12:59;;;;;;;2.83;1.95;;;28.90;71.00;;;;;;5092005;28;20212;-62
2021/06/04 10:15:29;;;;;;;3.22;1.88;;;28.90;71.70;;;;;;5092207;28;20247;-62
2021/06/04 10:18:03;;;;;;;3.65;2.00;;;28.90;71.70;;;;;;5092557;28;20228;-63
2021/06/04 10:20:40;;;;;;;2.83;2.10;;;29.00;72.00;;;;;;5092549;28;20203;-63
2021/06/04 10:23:23;;;;;;;2.65;1.83;;;28.80;72.70;;;;;;5092307;28;20215;-62
2021/06/04 10:25:54;;;;;;;4.00;2.20;;;28.60;73.20;;;;;;5090721;28;20205;-63
2021/06/04 10:28:38;;;;;;;6.55;2.33;;;28.30;74.30;;;;;;5092049;28;20684;-60
2021/06/04 10:31:29;;;;;;;4.03;2.30;;;28.30;75.30;;;;;;5092160;28;20204;-62
2021/06/04 10:34:05;;;;;;;3.60;2.20;;;28.30;76.20;;;;;;5091926;28;20232;-62
2021/06/04 10:36:34;;;;;;;4.20;2.17;;;28.30;76.10;;;;;;5092337;28;20203;-63
2021/06/04 10:39:06;;;;;;;3.97;2.30;;;28.30;75.90;;;;;;5091847;28;20746;-64
2021/06/04 10:41:44;;;;;;;3.40;2.03;;;28.30;76.30;;;;;;5092431;28;20276;-63
2021/06/04 10:44:19;;;;;;;5.32;2.20;;;28.50;76.00;;;;;;5091870;28;20231;-63
2021/06/04 10:46:52;;;;;;;7.03;2.85;;;28.70;76.20;;;;;;5091804;28;20694;-62
2021/06/04 10:49:45;;;;;;;3.38;2.53;;;28.90;75.70;;;;;;5092205;28;20211;-62
2021/06/04 10:52:22;;;;;;;5.07;2.40;;;29.10;75.50;;;;;;5092056;28;20211;-61
2021/06/04 10:55:01;;;;;;;5.63;4.22;;;29.10;75.60;;;;;;5092310;28;20219;-62
2021/06/04 10:57:33;;;;;;;4.90;2.63;;;29.00;75.80;;;;;;5092176;28;20208;-62
2021/06/04 11:00:06;;;;;;;7.00;2.72;;;29.30;75.10;;;;;;5092332;28;20207;-62
2021/06/04 11:02:39;;;;;;;4.25;2.20;;;29.50;75.10;;;;;;5092175;28;20215;-61
2021/06/04 11:05:35;;;;;;;5.28;2.53;;;29.70;74.10;;;;;;5091993;28;20228;-61
2021/06/04 11:08:12;;;;;;;5.90;2.38;;;30.00;73.20;;;;;;5072885;28;20707;-63
2021/06/04 11:10:48;;;;;;;6.80;2.80;;;30.20;72.20;;;;;;5091322;28;20203;-63
2021/06/04 11:13:30;;;;;;;3.03;2.28;;;30.40;71.20;;;;;;5091505;28;20208;-62
2021/06/04 11:16:00;;;;;;;5.63;2.70;;;30.60;70.10;;;;;;5091401;28;20204;-61
2021/06/04 11:18:36;;;;;;;3.85;2.92;;;30.70;69.80;;;;;;5091417;28;20634;-63
2021/06/04 11:21:04;;;;;;;5.07;2.60;;;30.90;68.90;;;;;;5091550;28;20237;-63
2021/06/04 11:23:43;;;;;;;3.75;2.50;;;31.10;68.20;;;;;;5091291;28;20242;-62
2021/06/04 11:26:17;;;;;;;5.50;2.40;;;31.30;67.60;;;;;;5092672;28;20211;-63
2021/06/04 11:28:46;;;;;;;4.97;2.00;;;31.10;67.30;;;;;;5091874;28;20207;-63
2021/06/04 11:31:29;;;;;;;4.97;2.20;;;30.80;68.40;;;;;;5092076;28;20204;-63
2021/06/04 11:33:58;;;;;;;5.50;2.58;;;30.50;69.80;;;;;;5093118;28;20253;-63
2021/06/04 11:36:28;;;;;;;6.82;2.80;;;30.30;70.20;;;;;;5092248;28;20212;-63
2021/06/04 11:39:00;;;;;;;4.82;2.25;;;30.40;70.40;;;;;;5091798;28;20223;-63
2021/06/04 11:41:33;;;;;;;5.40;2.55;;;30.50;70.00;;;;;;5091683;28;20204;-62
2021/06/04 11:44:05;;;;;;;5.80;3.33;;;30.50;69.90;;;;;;5090993;28;20235;-62
2021/06/04 11:46:33;;;;;;;4.43;2.60;;;30.50;70.00;;;;;;5097682;28;20435;-61
2021/06/04 11:49:09;;;;;;;5.30;2.50;;;30.70;70.30;;;;;;5111743;28;20682;-62
2021/06/04 11:51:39;;;;;;;4.80;2.63;;;30.80;69.80;;;;;;5111369;28;20210;-63
2021/06/04 11:54:40;;;;;;;4.32;2.47;;;30.70;69.50;;;;;;5111318;28;20227;-63
2021/06/04 11:57:12;;;;;;;4.80;2.80;;;30.70;69.80;;;;;;5097007;28;20203;-62
2021/06/04 12:00:01;;;;;;;4.78;2.40;;;30.60;70.10;;;;;;5090575;28;20257;-63
2021/06/04 12:02:43;;;;;;;3.85;2.47;;;30.50;69.60;;;;;;5090805;28;20204;-63
2021/06/04 12:05:30;;;;;;;2.88;2.10;;;30.20;69.40;;;;;;5090581;28;20235;-63
2021/06/04 12:08:16;;;;;;;6.03;1.85;;;29.90;70.90;;;;;;5090298;28;20207;-58
2021/06/04 12:11:32;;;;;;;4.93;2.20;;;29.00;72.70;;;;;;5090645;28;20583;-62
2021/06/04 12:14:26;;;;;;;3.90;2.13;;;28.30;74.50;;;;;;5074182;28;20299;-60
2021/06/04 12:17:16;;;;;;;6.30;2.58;;;27.80;78.60;;;;;;5055016;28;20596;-61
2021/06/04 12:19:42;;;;;;;12.48;3.92;;;27.40;81.10;;;;;;5091021;28;20707;-61
2021/06/04 12:22:36;;;;;;;5.15;2.20;;;27.00;84.80;;;;;;5092703;28;20258;-62
2021/06/04 12:25:09;;;;;;;3.70;2.10;;;26.80;87.30;;;;;;5094479;28;20240;-61
2021/06/04 12:28:11;;;;;;;4.70;2.17;;;26.40;91.00;;;;;;5094796;28;20212;-59
2021/06/04 12:31:07;;;;;;;5.68;2.35;;;26.10;91.00;;;;;;5094687;28;20262;-60
2021/06/04 12:33:51;;;;;;;5.05;2.13;;;25.70;93.00;;;;;;5094552;28;20228;-60
2021/06/04 12:36:57;;;;;;;5.05;2.40;;;25.30;93.90;;;;;;5094373;28;20208;-59
2021/06/04 12:39:53;;;;;;;3.53;2.05;;;24.80;93.80;;;;;;5094024;28;20224;-59
2021/06/04 12:42:36;;;;;;;4.25;2.15;;;24.50;95.40;;;;;;5080810;28;20287;-60
2021/06/04 12:45:10;;;;;;;5.15;2.20;;;24.20;95.90;;;;;;5093994;28;20223;-60
2021/06/04 12:47:43;;;;;;;4.10;2.33;;;24.10;97.30;;;;;;5094055;28;20575;-60
2021/06/04 12:50:16;;;;;;;5.22;2.22;;;24.10;99.80;;;;;;5094570;28;20204;-60
2021/06/04 12:52:43;;;;;;;5.93;1.83;;;24.00;98.20;;;;;;5095468;28;20204;-60
2021/06/04 12:55:23;;;;;;;3.92;1.83;;;24.00;98.90;;;;;;5096288;28;20224;-60
2021/06/04 12:57:51;;;;;;;3.85;2.03;;;24.00;97.90;;;;;;5099056;28;20220;-62
2021/06/04 13:00:21;;;;;;;3.03;1.98;;;24.00;98.70;;;;;;5099453;28;20215;-62
2021/06/04 13:02:54;;;;;;;3.95;2.15;;;24.00;99.60;;;;;;5096997;28;20204;-62
2021/06/04 13:05:22;;;;;;;3.80;2.25;;;24.00;99.30;;;;;;5094975;28;20216;-61
2021/06/04 13:07:48;;;;;;;4.80;2.28;;;23.90;99.90;;;;;;5096453;28;20226;-61
2021/06/04 13:10:21;;;;;;;4.65;2.88;;;23.90;99.90;;;;;;5096260;28;20280;-62